sensor_id;sensor_type;location;lat;lon;timestamp;P1;durP1;ratioP1;P2;durP2;ratioP2
67185;SDS011;54116;53.518;49.398;2023-12-29T00:00:37;5.10;;;1.75;;
67185;SDS011;54116;53.518;49.398;2023-12-29T00:03:03;4.57;;;1.60;;
67185;SDS011;54116;53.518;49.398;2023-12-29T00:05:30;4.63;;;1.88;;
67185;SDS011;54116;53.518;49.398;2023-12-29T00:07:56;6.05;;;1.95;;
67185;SDS011;54116;53.518;49.398;2023-12-29T00:10:22;5.72;;;2.15;;
67185;SDS011;54116;53.518;49.398;2023-12-29T00:12:48;4.75;;;1.77;;
67185;SDS011;54116;53.518;49.398;2023-12-29T00:15:17;5.72;;;2.00;;
67185;SDS011;54116;53.518;49.398;2023-12-29T00:17:44;4.43;;;1.75;;
67185;SDS011;54116;53.518;49.398;2023-12-29T00:20:12;5.32;;;1.60;;
67185;SDS011;54116;53.518;49.398;2023-12-29T00:22:38;5.40;;;1.90;;
67185;SDS011;54116;53.518;49.398;2023-12-29T00:25:05;4.05;;;1.80;;
67185;SDS011;54116;53.518;49.398;2023-12-29T00:27:35;4.90;;;1.98;;
67185;SDS011;54116;53.518;49.398;2023-12-29T00:30:02;7.00;;;2.35;;
67185;SDS011;54116;53.518;49.398;2023-12-29T00:32:28;8.10;;;2.40;;
67185;SDS011;54116;53.518;49.398;2023-12-29T00:34:54;6.50;;;2.17;;
67185;SDS011;54116;53.518;49.398;2023-12-29T00:37:21;5.72;;;2.53;;
67185;SDS011;54116;53.518;49.398;2023-12-29T00:39:47;7.07;;;1.85;;
67185;SDS011;54116;53.518;49.398;2023-12-29T00:42:13;4.72;;;1.70;;
67185;SDS011;54116;53.518;49.398;2023-12-29T00:44:40;5.55;;;1.73;;
67185;SDS011;54116;53.518;49.398;2023-12-29T00:47:06;3.90;;;1.40;;
67185;SDS011;54116;53.518;49.398;2023-12-29T00:49:33;4.90;;;1.73;;
67185;SDS011;54116;53.518;49.398;2023-12-29T00:51:59;5.68;;;2.05;;
67185;SDS011;54116;53.518;49.398;2023-12-29T00:54:25;5.47;;;1.90;;
67185;SDS011;54116;53.518;49.398;2023-12-29T00:56:51;4.50;;;1.60;;
67185;SDS011;54116;53.518;49.398;2023-12-29T00:59:18;4.13;;;1.38;;
67185;SDS011;54116;53.518;49.398;2023-12-29T01:01:47;4.07;;;1.52;;
67185;SDS011;54116;53.518;49.398;2023-12-29T01:04:14;4.38;;;1.52;;
67185;SDS011;54116;53.518;49.398;2023-12-29T01:06:40;4.15;;;1.30;;
67185;SDS011;54116;53.518;49.398;2023-12-29T01:09:06;4.35;;;1.75;;
67185;SDS011;54116;53.518;49.398;2023-12-29T01:11:34;6.53;;;1.63;;
67185;SDS011;54116;53.518;49.398;2023-12-29T01:14:00;5.35;;;1.70;;
67185;SDS011;54116;53.518;49.398;2023-12-29T01:16:26;6.10;;;1.70;;
67185;SDS011;54116;53.518;49.398;2023-12-29T01:18:52;5.13;;;1.95;;
67185;SDS011;54116;53.518;49.398;2023-12-29T01:21:18;4.57;;;1.60;;
67185;SDS011;54116;53.518;49.398;2023-12-29T01:23:44;3.67;;;1.38;;
67185;SDS011;54116;53.518;49.398;2023-12-29T01:26:10;5.13;;;1.70;;
67185;SDS011;54116;53.518;49.398;2023-12-29T01:28:37;5.85;;;1.60;;
67185;SDS011;54116;53.518;49.398;2023-12-29T01:31:03;5.22;;;1.75;;
67185;SDS011;54116;53.518;49.398;2023-12-29T01:33:30;5.60;;;1.98;;
67185;SDS011;54116;53.518;49.398;2023-12-29T01:35:56;4.25;;;1.40;;
67185;SDS011;54116;53.518;49.398;2023-12-29T01:38:22;5.55;;;1.92;;
67185;SDS011;54116;53.518;49.398;2023-12-29T01:40:48;4.03;;;1.50;;
67185;SDS011;54116;53.518;49.398;2023-12-29T01:43:14;4.85;;;1.63;;
67185;SDS011;54116;53.518;49.398;2023-12-29T01:45:40;4.22;;;1.38;;
67185;SDS011;54116;53.518;49.398;2023-12-29T01:48:06;5.03;;;1.42;;
67185;SDS011;54116;53.518;49.398;2023-12-29T01:50:34;5.05;;;1.70;;
67185;SDS011;54116;53.518;49.398;2023-12-29T01:53:01;3.72;;;1.33;;
67185;SDS011;54116;53.518;49.398;2023-12-29T01:55:28;5.00;;;1.60;;
67185;SDS011;54116;53.518;49.398;2023-12-29T01:57:55;6.13;;;1.67;;
67185;SDS011;54116;53.518;49.398;2023-12-29T02:00:21;4.78;;;1.60;;
67185;SDS011;54116;53.518;49.398;2023-12-29T02:02:47;6.55;;;1.52;;
67185;SDS011;54116;53.518;49.398;2023-12-29T02:05:15;4.43;;;1.45;;
67185;SDS011;54116;53.518;49.398;2023-12-29T02:07:42;4.70;;;1.48;;
67185;SDS011;54116;53.518;49.398;2023-12-29T02:10:09;4.53;;;1.95;;
67185;SDS011;54116;53.518;49.398;2023-12-29T02:12:39;4.82;;;1.60;;
67185;SDS011;54116;53.518;49.398;2023-12-29T02:15:05;4.70;;;1.63;;
67185;SDS011;54116;53.518;49.398;2023-12-29T02:17:35;3.42;;;1.38;;
67185;SDS011;54116;53.518;49.398;2023-12-29T02:20:07;4.25;;;1.52;;
67185;SDS011;54116;53.518;49.398;2023-12-29T02:22:35;3.92;;;1.50;;
67185;SDS011;54116;53.518;49.398;2023-12-29T02:25:01;6.05;;;1.88;;
67185;SDS011;54116;53.518;49.398;2023-12-29T02:32:38;3.15;;;1.27;;
67185;SDS011;54116;53.518;49.398;2023-12-29T02:35:07;4.22;;;1.60;;
67185;SDS011;54116;53.518;49.398;2023-12-29T02:37:36;6.65;;;1.73;;
67185;SDS011;54116;53.518;49.398;2023-12-29T02:40:05;5.13;;;1.63;;
67185;SDS011;54116;53.518;49.398;2023-12-29T02:42:32;4.78;;;1.85;;
67185;SDS011;54116;53.518;49.398;2023-12-29T02:44:59;5.03;;;1.85;;
67185;SDS011;54116;53.518;49.398;2023-12-29T02:47:25;5.10;;;1.75;;
67185;SDS011;54116;53.518;49.398;2023-12-29T02:49:52;3.83;;;1.33;;
67185;SDS011;54116;53.518;49.398;2023-12-29T02:52:18;4.95;;;1.73;;
67185;SDS011;54116;53.518;49.398;2023-12-29T02:54:45;5.22;;;1.90;;
67185;SDS011;54116;53.518;49.398;2023-12-29T02:57:11;4.93;;;1.65;;
67185;SDS011;54116;53.518;49.398;2023-12-29T02:59:37;4.70;;;1.98;;
67185;SDS011;54116;53.518;49.398;2023-12-29T03:02:03;6.90;;;2.00;;
67185;SDS011;54116;53.518;49.398;2023-12-29T03:04:30;4.45;;;1.48;;
67185;SDS011;54116;53.518;49.398;2023-12-29T03:06:57;5.03;;;1.92;;
67185;SDS011;54116;53.518;49.398;2023-12-29T03:09:23;5.43;;;1.80;;
67185;SDS011;54116;53.518;49.398;2023-12-29T03:11:50;4.78;;;1.52;;
67185;SDS011;54116;53.518;49.398;2023-12-29T03:14:16;6.25;;;1.73;;
67185;SDS011;54116;53.518;49.398;2023-12-29T03:16:43;4.45;;;1.40;;
67185;SDS011;54116;53.518;49.398;2023-12-29T03:19:09;4.55;;;1.50;;
67185;SDS011;54116;53.518;49.398;2023-12-29T03:21:36;5.07;;;1.70;;
67185;SDS011;54116;53.518;49.398;2023-12-29T03:24:02;4.75;;;1.60;;
67185;SDS011;54116;53.518;49.398;2023-12-29T03:26:28;5.40;;;1.80;;
67185;SDS011;54116;53.518;49.398;2023-12-29T03:28:54;5.80;;;1.65;;
67185;SDS011;54116;53.518;49.398;2023-12-29T03:31:20;4.15;;;1.52;;
67185;SDS011;54116;53.518;49.398;2023-12-29T03:33:46;4.43;;;1.65;;
67185;SDS011;54116;53.518;49.398;2023-12-29T03:36:12;5.57;;;1.80;;
67185;SDS011;54116;53.518;49.398;2023-12-29T03:38:39;6.80;;;1.80;;
67185;SDS011;54116;53.518;49.398;2023-12-29T03:41:05;5.43;;;1.85;;
67185;SDS011;54116;53.518;49.398;2023-12-29T03:43:31;5.50;;;1.83;;
67185;SDS011;54116;53.518;49.398;2023-12-29T03:45:57;6.45;;;1.75;;
67185;SDS011;54116;53.518;49.398;2023-12-29T03:50:49;5.50;;;1.55;;
67185;SDS011;54116;53.518;49.398;2023-12-29T03:53:15;4.30;;;1.75;;
67185;SDS011;54116;53.518;49.398;2023-12-29T03:55:41;4.68;;;1.52;;
67185;SDS011;54116;53.518;49.398;2023-12-29T04:00:35;6.53;;;2.05;;
67185;SDS011;54116;53.518;49.398;2023-12-29T04:03:02;4.95;;;1.98;;
67185;SDS011;54116;53.518;49.398;2023-12-29T04:05:28;7.20;;;2.10;;
67185;SDS011;54116;53.518;49.398;2023-12-29T04:07:55;6.97;;;2.22;;
67185;SDS011;54116;53.518;49.398;2023-12-29T04:10:21;6.00;;;1.88;;
67185;SDS011;54116;53.518;49.398;2023-12-29T04:12:47;6.28;;;2.00;;
67185;SDS011;54116;53.518;49.398;2023-12-29T04:15:13;5.88;;;1.88;;
67185;SDS011;54116;53.518;49.398;2023-12-29T04:17:40;7.25;;;2.53;;
67185;SDS011;54116;53.518;49.398;2023-12-29T04:20:06;4.63;;;1.73;;
67185;SDS011;54116;53.518;49.398;2023-12-29T04:22:33;5.60;;;2.30;;
67185;SDS011;54116;53.518;49.398;2023-12-29T04:24:59;5.55;;;1.90;;
67185;SDS011;54116;53.518;49.398;2023-12-29T04:27:25;6.38;;;2.15;;
67185;SDS011;54116;53.518;49.398;2023-12-29T04:29:51;7.45;;;2.40;;
67185;SDS011;54116;53.518;49.398;2023-12-29T04:32:18;6.28;;;2.17;;
67185;SDS011;54116;53.518;49.398;2023-12-29T04:34:44;7.07;;;2.00;;
67185;SDS011;54116;53.518;49.398;2023-12-29T04:37:10;6.13;;;2.08;;
67185;SDS011;54116;53.518;49.398;2023-12-29T04:39:37;6.22;;;1.80;;
67185;SDS011;54116;53.518;49.398;2023-12-29T04:42:03;9.15;;;2.47;;
67185;SDS011;54116;53.518;49.398;2023-12-29T04:44:29;6.40;;;2.00;;
67185;SDS011;54116;53.518;49.398;2023-12-29T04:46:55;6.28;;;1.80;;
67185;SDS011;54116;53.518;49.398;2023-12-29T04:49:21;5.80;;;1.98;;
67185;SDS011;54116;53.518;49.398;2023-12-29T04:51:47;5.57;;;1.77;;
67185;SDS011;54116;53.518;49.398;2023-12-29T04:54:14;6.07;;;2.00;;
67185;SDS011;54116;53.518;49.398;2023-12-29T04:56:40;7.15;;;2.05;;
67185;SDS011;54116;53.518;49.398;2023-12-29T04:59:06;8.25;;;2.53;;
67185;SDS011;54116;53.518;49.398;2023-12-29T05:01:32;6.03;;;1.95;;
67185;SDS011;54116;53.518;49.398;2023-12-29T05:03:58;6.85;;;2.42;;
67185;SDS011;54116;53.518;49.398;2023-12-29T05:06:24;4.97;;;2.03;;
67185;SDS011;54116;53.518;49.398;2023-12-29T05:08:50;6.15;;;2.53;;
67185;SDS011;54116;53.518;49.398;2023-12-29T05:11:16;6.25;;;1.88;;
67185;SDS011;54116;53.518;49.398;2023-12-29T05:13:42;7.05;;;2.08;;
67185;SDS011;54116;53.518;49.398;2023-12-29T05:16:08;6.82;;;2.38;;
67185;SDS011;54116;53.518;49.398;2023-12-29T05:18:34;6.07;;;1.77;;
67185;SDS011;54116;53.518;49.398;2023-12-29T05:21:01;7.07;;;1.90;;
67185;SDS011;54116;53.518;49.398;2023-12-29T05:23:28;7.88;;;1.95;;
67185;SDS011;54116;53.518;49.398;2023-12-29T05:25:55;6.15;;;1.88;;
67185;SDS011;54116;53.518;49.398;2023-12-29T05:28:21;14.35;;;4.55;;
67185;SDS011;54116;53.518;49.398;2023-12-29T05:30:47;6.70;;;1.83;;
67185;SDS011;54116;53.518;49.398;2023-12-29T05:33:14;6.03;;;1.83;;
67185;SDS011;54116;53.518;49.398;2023-12-29T05:35:40;6.07;;;1.67;;
67185;SDS011;54116;53.518;49.398;2023-12-29T05:38:06;5.03;;;1.80;;
67185;SDS011;54116;53.518;49.398;2023-12-29T05:40:32;5.60;;;2.05;;
67185;SDS011;54116;53.518;49.398;2023-12-29T05:42:59;9.98;;;2.10;;
67185;SDS011;54116;53.518;49.398;2023-12-29T05:45:25;7.28;;;1.92;;
67185;SDS011;54116;53.518;49.398;2023-12-29T05:47:51;6.47;;;2.25;;
67185;SDS011;54116;53.518;49.398;2023-12-29T05:50:18;7.05;;;1.90;;
67185;SDS011;54116;53.518;49.398;2023-12-29T05:52:44;6.15;;;1.90;;
67185;SDS011;54116;53.518;49.398;2023-12-29T05:55:10;5.60;;;1.75;;
67185;SDS011;54116;53.518;49.398;2023-12-29T05:57:37;5.28;;;1.48;;
67185;SDS011;54116;53.518;49.398;2023-12-29T06:00:03;4.60;;;1.60;;
67185;SDS011;54116;53.518;49.398;2023-12-29T06:02:30;5.60;;;1.55;;
67185;SDS011;54116;53.518;49.398;2023-12-29T06:04:56;4.40;;;1.50;;
67185;SDS011;54116;53.518;49.398;2023-12-29T06:07:23;6.72;;;1.90;;
67185;SDS011;54116;53.518;49.398;2023-12-29T06:09:49;5.20;;;1.73;;
67185;SDS011;54116;53.518;49.398;2023-12-29T06:12:15;4.75;;;1.40;;
67185;SDS011;54116;53.518;49.398;2023-12-29T06:14:42;3.35;;;1.27;;
67185;SDS011;54116;53.518;49.398;2023-12-29T06:17:08;4.75;;;1.50;;
67185;SDS011;54116;53.518;49.398;2023-12-29T06:19:34;4.93;;;1.70;;
67185;SDS011;54116;53.518;49.398;2023-12-29T06:22:02;3.83;;;1.40;;
67185;SDS011;54116;53.518;49.398;2023-12-29T06:24:28;5.15;;;1.50;;
67185;SDS011;54116;53.518;49.398;2023-12-29T06:26:54;5.18;;;1.48;;
67185;SDS011;54116;53.518;49.398;2023-12-29T06:29:20;2.78;;;1.33;;
67185;SDS011;54116;53.518;49.398;2023-12-29T06:31:46;4.00;;;1.30;;
67185;SDS011;54116;53.518;49.398;2023-12-29T06:34:12;3.92;;;1.27;;
67185;SDS011;54116;53.518;49.398;2023-12-29T06:36:39;3.95;;;1.30;;
67185;SDS011;54116;53.518;49.398;2023-12-29T06:39:05;3.42;;;0.93;;
67185;SDS011;54116;53.518;49.398;2023-12-29T06:41:31;3.25;;;1.08;;
67185;SDS011;54116;53.518;49.398;2023-12-29T06:43:57;3.95;;;1.30;;
67185;SDS011;54116;53.518;49.398;2023-12-29T06:46:23;4.97;;;1.30;;
67185;SDS011;54116;53.518;49.398;2023-12-29T06:48:49;4.90;;;1.58;;
67185;SDS011;54116;53.518;49.398;2023-12-29T06:51:16;3.42;;;1.45;;
67185;SDS011;54116;53.518;49.398;2023-12-29T06:53:43;3.63;;;1.10;;
67185;SDS011;54116;53.518;49.398;2023-12-29T06:56:16;3.72;;;1.33;;
67185;SDS011;54116;53.518;49.398;2023-12-29T06:58:43;3.53;;;1.20;;
67185;SDS011;54116;53.518;49.398;2023-12-29T07:01:10;4.53;;;1.30;;
67185;SDS011;54116;53.518;49.398;2023-12-29T07:03:36;3.92;;;1.40;;
67185;SDS011;54116;53.518;49.398;2023-12-29T07:06:02;4.07;;;1.55;;
67185;SDS011;54116;53.518;49.398;2023-12-29T07:08:29;2.63;;;1.00;;
67185;SDS011;54116;53.518;49.398;2023-12-29T07:10:55;4.13;;;1.20;;
67185;SDS011;54116;53.518;49.398;2023-12-29T07:13:21;2.22;;;0.90;;
67185;SDS011;54116;53.518;49.398;2023-12-29T07:15:47;3.83;;;1.27;;
67185;SDS011;54116;53.518;49.398;2023-12-29T07:18:14;3.88;;;1.33;;
67185;SDS011;54116;53.518;49.398;2023-12-29T07:20:40;3.90;;;1.58;;
67185;SDS011;54116;53.518;49.398;2023-12-29T07:23:07;3.35;;;1.13;;
67185;SDS011;54116;53.518;49.398;2023-12-29T07:25:33;3.55;;;1.40;;
67185;SDS011;54116;53.518;49.398;2023-12-29T07:27:59;3.17;;;1.08;;
67185;SDS011;54116;53.518;49.398;2023-12-29T07:30:26;5.10;;;1.15;;
67185;SDS011;54116;53.518;49.398;2023-12-29T07:32:52;3.40;;;1.02;;
67185;SDS011;54116;53.518;49.398;2023-12-29T07:35:18;3.63;;;1.15;;
67185;SDS011;54116;53.518;49.398;2023-12-29T07:37:45;3.45;;;1.30;;
67185;SDS011;54116;53.518;49.398;2023-12-29T07:40:12;4.93;;;1.40;;
67185;SDS011;54116;53.518;49.398;2023-12-29T07:42:39;3.60;;;1.20;;
67185;SDS011;54116;53.518;49.398;2023-12-29T07:45:06;3.72;;;1.25;;
67185;SDS011;54116;53.518;49.398;2023-12-29T07:47:34;3.67;;;1.30;;
67185;SDS011;54116;53.518;49.398;2023-12-29T07:50:00;3.83;;;1.25;;
67185;SDS011;54116;53.518;49.398;2023-12-29T07:54:53;4.57;;;1.30;;
67185;SDS011;54116;53.518;49.398;2023-12-29T07:57:19;4.65;;;1.63;;
67185;SDS011;54116;53.518;49.398;2023-12-29T07:59:45;3.55;;;1.40;;
67185;SDS011;54116;53.518;49.398;2023-12-29T08:02:11;5.13;;;1.55;;
67185;SDS011;54116;53.518;49.398;2023-12-29T08:04:37;4.82;;;1.50;;
67185;SDS011;54116;53.518;49.398;2023-12-29T08:07:04;4.80;;;1.35;;
67185;SDS011;54116;53.518;49.398;2023-12-29T08:09:30;4.07;;;1.23;;
67185;SDS011;54116;53.518;49.398;2023-12-29T08:11:56;3.35;;;1.00;;
67185;SDS011;54116;53.518;49.398;2023-12-29T08:14:22;3.10;;;1.20;;
67185;SDS011;54116;53.518;49.398;2023-12-29T08:16:48;3.75;;;1.30;;
67185;SDS011;54116;53.518;49.398;2023-12-29T08:19:14;3.80;;;1.25;;
67185;SDS011;54116;53.518;49.398;2023-12-29T08:21:41;3.97;;;1.55;;
67185;SDS011;54116;53.518;49.398;2023-12-29T08:24:08;3.60;;;1.17;;
67185;SDS011;54116;53.518;49.398;2023-12-29T08:26:34;4.93;;;1.58;;
67185;SDS011;54116;53.518;49.398;2023-12-29T08:29:00;3.25;;;1.23;;
67185;SDS011;54116;53.518;49.398;2023-12-29T08:31:26;4.78;;;1.17;;
67185;SDS011;54116;53.518;49.398;2023-12-29T08:33:54;3.72;;;1.25;;
67185;SDS011;54116;53.518;49.398;2023-12-29T08:36:20;3.50;;;1.10;;
67185;SDS011;54116;53.518;49.398;2023-12-29T08:41:16;3.65;;;1.45;;
67185;SDS011;54116;53.518;49.398;2023-12-29T08:43:42;2.70;;;1.15;;
67185;SDS011;54116;53.518;49.398;2023-12-29T08:46:08;5.95;;;1.45;;
67185;SDS011;54116;53.518;49.398;2023-12-29T08:48:34;4.97;;;1.60;;
67185;SDS011;54116;53.518;49.398;2023-12-29T08:51:00;3.50;;;1.52;;
67185;SDS011;54116;53.518;49.398;2023-12-29T08:53:26;4.50;;;1.48;;
67185;SDS011;54116;53.518;49.398;2023-12-29T08:55:52;4.10;;;1.38;;
67185;SDS011;54116;53.518;49.398;2023-12-29T08:58:18;4.97;;;1.33;;
67185;SDS011;54116;53.518;49.398;2023-12-29T09:00:44;3.90;;;1.48;;
67185;SDS011;54116;53.518;49.398;2023-12-29T09:03:11;4.40;;;1.40;;
67185;SDS011;54116;53.518;49.398;2023-12-29T09:05:37;3.92;;;1.60;;
67185;SDS011;54116;53.518;49.398;2023-12-29T09:08:03;3.53;;;1.30;;
67185;SDS011;54116;53.518;49.398;2023-12-29T09:10:30;6.18;;;1.50;;
67185;SDS011;54116;53.518;49.398;2023-12-29T09:12:56;4.15;;;1.48;;
67185;SDS011;54116;53.518;49.398;2023-12-29T09:15:22;5.57;;;1.60;;
67185;SDS011;54116;53.518;49.398;2023-12-29T09:17:48;4.70;;;1.58;;
67185;SDS011;54116;53.518;49.398;2023-12-29T09:20:14;3.42;;;1.13;;
67185;SDS011;54116;53.518;49.398;2023-12-29T09:22:41;4.05;;;1.27;;
67185;SDS011;54116;53.518;49.398;2023-12-29T09:25:08;4.90;;;1.60;;
67185;SDS011;54116;53.518;49.398;2023-12-29T09:27:34;4.35;;;1.50;;
67185;SDS011;54116;53.518;49.398;2023-12-29T09:30:00;3.83;;;1.38;;
67185;SDS011;54116;53.518;49.398;2023-12-29T09:32:26;4.90;;;1.55;;
67185;SDS011;54116;53.518;49.398;2023-12-29T09:34:52;3.63;;;1.20;;
67185;SDS011;54116;53.518;49.398;2023-12-29T09:37:18;3.67;;;1.20;;
67185;SDS011;54116;53.518;49.398;2023-12-29T09:39:44;4.15;;;1.40;;
67185;SDS011;54116;53.518;49.398;2023-12-29T09:42:12;4.82;;;1.58;;
67185;SDS011;54116;53.518;49.398;2023-12-29T09:44:45;3.42;;;1.30;;
67185;SDS011;54116;53.518;49.398;2023-12-29T09:47:14;2.75;;;1.00;;
67185;SDS011;54116;53.518;49.398;2023-12-29T09:49:51;4.38;;;1.60;;
67185;SDS011;54116;53.518;49.398;2023-12-29T09:52:20;3.97;;;1.27;;
67185;SDS011;54116;53.518;49.398;2023-12-29T09:54:51;3.22;;;1.15;;
67185;SDS011;54116;53.518;49.398;2023-12-29T09:57:18;4.03;;;1.27;;
67185;SDS011;54116;53.518;49.398;2023-12-29T09:59:44;4.32;;;1.60;;
67185;SDS011;54116;53.518;49.398;2023-12-29T10:02:16;3.47;;;1.33;;
67185;SDS011;54116;53.518;49.398;2023-12-29T10:04:43;3.92;;;1.45;;
67185;SDS011;54116;53.518;49.398;2023-12-29T10:07:10;4.90;;;1.95;;
67185;SDS011;54116;53.518;49.398;2023-12-29T10:09:45;5.03;;;1.63;;
67185;SDS011;54116;53.518;49.398;2023-12-29T10:12:12;3.90;;;1.52;;
67185;SDS011;54116;53.518;49.398;2023-12-29T10:17:28;5.72;;;1.65;;
67185;SDS011;54116;53.518;49.398;2023-12-29T10:20:02;4.93;;;1.63;;
67185;SDS011;54116;53.518;49.398;2023-12-29T10:22:41;4.68;;;1.40;;
67185;SDS011;54116;53.518;49.398;2023-12-29T10:25:30;5.82;;;1.88;;
67185;SDS011;54116;53.518;49.398;2023-12-29T10:27:57;6.40;;;1.67;;
67185;SDS011;54116;53.518;49.398;2023-12-29T10:30:24;4.55;;;1.60;;
67185;SDS011;54116;53.518;49.398;2023-12-29T10:32:50;4.75;;;1.70;;
67185;SDS011;54116;53.518;49.398;2023-12-29T10:35:19;4.78;;;1.80;;
67185;SDS011;54116;53.518;49.398;2023-12-29T10:37:45;4.88;;;1.80;;
67185;SDS011;54116;53.518;49.398;2023-12-29T10:40:18;3.88;;;1.55;;
67185;SDS011;54116;53.518;49.398;2023-12-29T10:45:18;5.28;;;1.60;;
67185;SDS011;54116;53.518;49.398;2023-12-29T10:47:44;4.85;;;1.92;;
67185;SDS011;54116;53.518;49.398;2023-12-29T10:50:10;4.90;;;1.80;;
67185;SDS011;54116;53.518;49.398;2023-12-29T10:52:37;4.53;;;1.58;;
67185;SDS011;54116;53.518;49.398;2023-12-29T10:55:07;5.53;;;2.10;;
67185;SDS011;54116;53.518;49.398;2023-12-29T10:57:37;5.32;;;1.98;;
67185;SDS011;54116;53.518;49.398;2023-12-29T11:00:05;5.55;;;2.15;;
67185;SDS011;54116;53.518;49.398;2023-12-29T11:02:34;5.13;;;2.03;;
67185;SDS011;54116;53.518;49.398;2023-12-29T11:05:04;5.72;;;2.03;;
67185;SDS011;54116;53.518;49.398;2023-12-29T11:07:32;4.72;;;1.85;;
67185;SDS011;54116;53.518;49.398;2023-12-29T11:10:00;6.45;;;2.15;;
67185;SDS011;54116;53.518;49.398;2023-12-29T11:12:29;7.43;;;2.10;;
67185;SDS011;54116;53.518;49.398;2023-12-29T11:14:58;4.80;;;1.90;;
67185;SDS011;54116;53.518;49.398;2023-12-29T11:17:25;5.70;;;1.95;;
67185;SDS011;54116;53.518;49.398;2023-12-29T11:19:52;5.45;;;2.17;;
67185;SDS011;54116;53.518;49.398;2023-12-29T11:24:46;4.70;;;1.70;;
67185;SDS011;54116;53.518;49.398;2023-12-29T11:27:13;6.45;;;2.30;;
67185;SDS011;54116;53.518;49.398;2023-12-29T11:32:08;5.63;;;2.00;;
67185;SDS011;54116;53.518;49.398;2023-12-29T11:34:42;6.57;;;2.25;;
67185;SDS011;54116;53.518;49.398;2023-12-29T11:40:26;7.43;;;2.70;;
67185;SDS011;54116;53.518;49.398;2023-12-29T11:43:08;5.47;;;2.10;;
67185;SDS011;54116;53.518;49.398;2023-12-29T11:45:38;7.40;;;2.63;;
67185;SDS011;54116;53.518;49.398;2023-12-29T11:48:05;6.53;;;2.42;;
67185;SDS011;54116;53.518;49.398;2023-12-29T11:52:58;7.32;;;2.90;;
67185;SDS011;54116;53.518;49.398;2023-12-29T11:55:34;7.20;;;2.42;;
67185;SDS011;54116;53.518;49.398;2023-12-29T11:58:04;7.47;;;3.05;;
67185;SDS011;54116;53.518;49.398;2023-12-29T12:00:48;9.27;;;2.97;;
67185;SDS011;54116;53.518;49.398;2023-12-29T12:05:45;7.80;;;2.65;;
67185;SDS011;54116;53.518;49.398;2023-12-29T12:08:26;7.43;;;3.13;;
67185;SDS011;54116;53.518;49.398;2023-12-29T12:11:46;8.10;;;3.38;;
67185;SDS011;54116;53.518;49.398;2023-12-29T12:13:59;9.20;;;3.30;;
67185;SDS011;54116;53.518;49.398;2023-12-29T12:19:13;8.05;;;3.40;;
67185;SDS011;54116;53.518;49.398;2023-12-29T12:21:40;8.52;;;2.88;;
67185;SDS011;54116;53.518;49.398;2023-12-29T12:24:06;9.65;;;3.38;;
67185;SDS011;54116;53.518;49.398;2023-12-29T12:26:33;8.75;;;3.33;;
67185;SDS011;54116;53.518;49.398;2023-12-29T12:31:26;8.02;;;3.05;;
67185;SDS011;54116;53.518;49.398;2023-12-29T12:33:53;8.95;;;3.53;;
67185;SDS011;54116;53.518;49.398;2023-12-29T12:36:20;9.52;;;3.47;;
67185;SDS011;54116;53.518;49.398;2023-12-29T12:38:51;8.55;;;3.70;;
67185;SDS011;54116;53.518;49.398;2023-12-29T12:41:20;10.48;;;3.75;;
67185;SDS011;54116;53.518;49.398;2023-12-29T12:43:53;9.50;;;3.58;;
67185;SDS011;54116;53.518;49.398;2023-12-29T12:46:33;9.45;;;3.70;;
67185;SDS011;54116;53.518;49.398;2023-12-29T12:49:01;8.80;;;3.42;;
67185;SDS011;54116;53.518;49.398;2023-12-29T12:51:29;9.90;;;3.45;;
67185;SDS011;54116;53.518;49.398;2023-12-29T12:53:56;10.27;;;3.65;;
67185;SDS011;54116;53.518;49.398;2023-12-29T12:56:22;11.57;;;3.85;;
67185;SDS011;54116;53.518;49.398;2023-12-29T12:58:56;10.05;;;3.65;;
67185;SDS011;54116;53.518;49.398;2023-12-29T13:01:26;10.18;;;3.65;;
67185;SDS011;54116;53.518;49.398;2023-12-29T13:03:54;9.65;;;3.60;;
67185;SDS011;54116;53.518;49.398;2023-12-29T13:06:22;10.02;;;4.03;;
67185;SDS011;54116;53.518;49.398;2023-12-29T13:08:48;10.35;;;4.03;;
67185;SDS011;54116;53.518;49.398;2023-12-29T13:11:20;9.48;;;3.55;;
67185;SDS011;54116;53.518;49.398;2023-12-29T13:13:53;10.77;;;4.07;;
67185;SDS011;54116;53.518;49.398;2023-12-29T13:18:55;11.88;;;4.10;;
67185;SDS011;54116;53.518;49.398;2023-12-29T13:21:21;10.35;;;4.18;;
67185;SDS011;54116;53.518;49.398;2023-12-29T13:23:48;9.73;;;3.60;;
67185;SDS011;54116;53.518;49.398;2023-12-29T13:26:16;8.32;;;2.90;;
67185;SDS011;54116;53.518;49.398;2023-12-29T13:28:45;9.45;;;3.55;;
67185;SDS011;54116;53.518;49.398;2023-12-29T13:31:12;9.43;;;3.83;;
67185;SDS011;54116;53.518;49.398;2023-12-29T13:33:51;10.18;;;3.90;;
67185;SDS011;54116;53.518;49.398;2023-12-29T13:37:00;8.93;;;3.60;;
67185;SDS011;54116;53.518;49.398;2023-12-29T13:39:26;9.75;;;3.67;;
67185;SDS011;54116;53.518;49.398;2023-12-29T13:42:06;10.48;;;3.97;;
67185;SDS011;54116;53.518;49.398;2023-12-29T13:44:34;10.00;;;3.70;;
67185;SDS011;54116;53.518;49.398;2023-12-29T13:47:03;9.32;;;3.67;;
67185;SDS011;54116;53.518;49.398;2023-12-29T13:49:31;13.27;;;4.90;;
67185;SDS011;54116;53.518;49.398;2023-12-29T13:52:02;9.13;;;3.35;;
67185;SDS011;54116;53.518;49.398;2023-12-29T13:54:29;10.90;;;4.13;;
67185;SDS011;54116;53.518;49.398;2023-12-29T13:56:56;11.48;;;4.45;;
67185;SDS011;54116;53.518;49.398;2023-12-29T13:59:28;10.02;;;3.78;;
67185;SDS011;54116;53.518;49.398;2023-12-29T14:02:03;10.60;;;4.50;;
67185;SDS011;54116;53.518;49.398;2023-12-29T14:04:47;10.10;;;3.88;;
67185;SDS011;54116;53.518;49.398;2023-12-29T14:07:13;11.38;;;3.80;;
67185;SDS011;54116;53.518;49.398;2023-12-29T14:09:40;9.70;;;3.75;;
67185;SDS011;54116;53.518;49.398;2023-12-29T14:12:07;10.52;;;4.07;;
67185;SDS011;54116;53.518;49.398;2023-12-29T14:14:33;9.93;;;3.95;;
67185;SDS011;54116;53.518;49.398;2023-12-29T14:17:03;11.88;;;4.05;;
67185;SDS011;54116;53.518;49.398;2023-12-29T14:22:04;9.95;;;3.58;;
67185;SDS011;54116;53.518;49.398;2023-12-29T14:24:30;9.82;;;3.47;;
67185;SDS011;54116;53.518;49.398;2023-12-29T14:26:56;10.25;;;3.42;;
67185;SDS011;54116;53.518;49.398;2023-12-29T14:29:24;10.77;;;3.20;;
67185;SDS011;54116;53.518;49.398;2023-12-29T14:31:51;9.40;;;3.60;;
67185;SDS011;54116;53.518;49.398;2023-12-29T14:34:18;9.82;;;3.35;;
67185;SDS011;54116;53.518;49.398;2023-12-29T14:39:11;9.60;;;3.50;;
67185;SDS011;54116;53.518;49.398;2023-12-29T14:41:38;9.85;;;3.75;;
67185;SDS011;54116;53.518;49.398;2023-12-29T14:46:31;11.30;;;3.95;;
67185;SDS011;54116;53.518;49.398;2023-12-29T14:48:59;11.63;;;4.03;;
67185;SDS011;54116;53.518;49.398;2023-12-29T14:51:26;11.10;;;4.70;;
67185;SDS011;54116;53.518;49.398;2023-12-29T14:53:52;18.23;;;7.47;;
67185;SDS011;54116;53.518;49.398;2023-12-29T14:56:18;11.75;;;4.20;;
67185;SDS011;54116;53.518;49.398;2023-12-29T14:58:44;10.80;;;4.00;;
67185;SDS011;54116;53.518;49.398;2023-12-29T15:01:11;13.35;;;6.03;;
67185;SDS011;54116;53.518;49.398;2023-12-29T15:03:37;9.30;;;3.53;;
67185;SDS011;54116;53.518;49.398;2023-12-29T15:06:03;10.63;;;4.00;;
67185;SDS011;54116;53.518;49.398;2023-12-29T15:08:30;10.55;;;4.00;;
67185;SDS011;54116;53.518;49.398;2023-12-29T15:11:00;11.57;;;4.13;;
67185;SDS011;54116;53.518;49.398;2023-12-29T15:13:28;12.23;;;4.40;;
67185;SDS011;54116;53.518;49.398;2023-12-29T15:15:56;12.43;;;5.20;;
67185;SDS011;54116;53.518;49.398;2023-12-29T15:18:24;12.13;;;4.32;;
67185;SDS011;54116;53.518;49.398;2023-12-29T15:20:51;10.50;;;3.92;;
67185;SDS011;54116;53.518;49.398;2023-12-29T15:23:18;10.68;;;4.15;;